Time;durP1;ratioP1;P1;durP2;ratioP2;P2;SDS_P1;SDS_P2;PMS_P1;PMS_P2;Temp;Humidity;BMP_temperature;BMP_pressure;BME280_temperature;BME280_humidity;BME280_pressure;Samples;Min_cycle;Max_cycle;Signal;HPM_P1;HPM_P2
2021/09/07 00:00:20;;;;;;;12.55;10.00;;;20.40;83.40;;;;;;5058030;28;20442;-85
2021/09/07 00:02:46;;;;;;;13.85;10.15;;;20.30;84.30;;;;;;5073891;28;20049;-84
2021/09/07 00:05:13;;;;;;;12.65;10.15;;;20.30;84.50;;;;;;5028662;28;20020;-85
2021/09/07 00:07:39;;;;;;;11.60;9.68;;;20.30;84.00;;;;;;5074324;28;20036;-84
2021/09/07 00:10:10;;;;;;;12.73;9.90;;;20.30;84.20;;;;;;5060477;28;20044;-84
2021/09/07 00:12:37;;;;;;;12.05;9.73;;;20.20;84.40;;;;;;5081554;28;20033;-84
2021/09/07 00:15:04;;;;;;;12.93;10.02;;;20.30;84.40;;;;;;5068491;28;20019;-84
2021/09/07 00:17:29;;;;;;;13.38;9.82;;;20.20;84.50;;;;;;5081979;28;20055;-85
2021/09/07 00:19:55;;;;;;;12.00;8.85;;;20.20;84.60;;;;;;5043694;28;20113;-84
2021/09/07 00:22:21;;;;;;;12.55;9.73;;;20.20;84.60;;;;;;5054454;28;20033;-85
2021/09/07 00:24:46;;;;;;;12.40;9.77;;;20.20;84.80;;;;;;5044427;28;20151;-84
2021/09/07 00:27:12;;;;;;;13.70;10.38;;;20.20;84.80;;;;;;5053968;28;20073;-84
2021/09/07 00:29:38;;;;;;;13.85;10.43;;;20.10;84.70;;;;;;5054859;28;20105;-84
2021/09/07 00:32:04;;;;;;;13.10;10.75;;;20.10;84.80;;;;;;5038120;28;20043;-84
2021/09/07 00:34:30;;;;;;;13.05;10.02;;;20.10;84.60;;;;;;5063854;28;20440;-84
2021/09/07 00:36:56;;;;;;;13.13;9.93;;;20.00;84.90;;;;;;5056211;28;20028;-84
2021/09/07 00:39:22;;;;;;;14.63;10.80;;;20.00;85.00;;;;;;5061988;28;20020;-85
2021/09/07 00:41:48;;;;;;;15.48;10.10;;;20.00;85.20;;;;;;5072195;28;20044;-84
2021/09/07 00:44:15;;;;;;;14.23;10.02;;;20.00;85.30;;;;;;5049056;28;20024;-85
2021/09/07 00:46:43;;;;;;;16.27;10.30;;;20.00;85.50;;;;;;5075614;28;20021;-84
2021/09/07 00:49:10;;;;;;;13.25;10.30;;;20.00;85.70;;;;;;5051633;28;20032;-85
2021/09/07 00:51:36;;;;;;;12.88;10.10;;;20.00;85.70;;;;;;5089262;28;20024;-84
2021/09/07 00:54:02;;;;;;;14.27;10.15;;;20.00;85.70;;;;;;5065749;28;20035;-84
2021/09/07 00:56:28;;;;;;;16.13;12.23;;;20.00;86.00;;;;;;5052186;28;20024;-85
2021/09/07 00:58:54;;;;;;;14.00;10.55;;;20.00;86.00;;;;;;5050733;28;20438;-84
2021/09/07 01:01:20;;;;;;;12.80;10.18;;;20.00;86.80;;;;;;5037668;28;20121;-84
2021/09/07 01:03:46;;;;;;;12.88;10.57;;;20.00;86.10;;;;;;5059898;28;20461;-85
2021/09/07 01:06:11;;;;;;;13.10;10.52;;;20.00;86.20;;;;;;5078345;28;20024;-85
2021/09/07 01:08:38;;;;;;;13.02;10.30;;;19.90;86.20;;;;;;5060571;28;20127;-84
2021/09/07 01:11:04;;;;;;;13.23;10.70;;;19.90;86.30;;;;;;5078322;28;20047;-84
2021/09/07 01:13:29;;;;;;;14.32;11.20;;;19.90;86.20;;;;;;5063045;28;20029;-84
2021/09/07 01:15:55;;;;;;;13.85;10.55;;;19.90;86.30;;;;;;5047567;28;20032;-84
2021/09/07 01:18:21;;;;;;;13.70;10.00;;;19.90;86.30;;;;;;5065932;28;20032;-84
2021/09/07 01:20:46;;;;;;;13.75;10.48;;;19.90;86.40;;;;;;5045015;28;20520;-84
2021/09/07 01:23:12;;;;;;;13.68;10.27;;;19.90;86.50;;;;;;5050936;28;20032;-84
2021/09/07 01:25:38;;;;;;;12.57;10.23;;;19.90;86.70;;;;;;5072310;28;20028;-84
2021/09/07 01:28:03;;;;;;;16.27;11.02;;;19.90;86.90;;;;;;5065517;28;20032;-85
2021/09/07 01:30:29;;;;;;;15.48;11.60;;;19.90;87.00;;;;;;5081507;28;20244;-86
2021/09/07 01:32:56;;;;;;;15.05;10.57;;;19.90;87.10;;;;;;5078086;28;20085;-85
2021/09/07 01:35:22;;;;;;;13.32;10.52;;;19.90;87.20;;;;;;5065170;28;20410;-86
2021/09/07 01:37:47;;;;;;;14.60;11.32;;;19.90;87.20;;;;;;5054734;28;20024;-84
2021/09/07 01:40:13;;;;;;;14.38;11.43;;;19.90;87.30;;;;;;5057151;28;20488;-85
2021/09/07 01:42:41;;;;;;;14.43;11.68;;;19.90;87.30;;;;;;5042972;28;20663;-84
2021/09/07 01:45:08;;;;;;;15.15;12.27;;;19.80;87.30;;;;;;5086985;28;20029;-84
2021/09/07 01:47:34;;;;;;;14.00;10.30;;;19.80;87.40;;;;;;5057459;28;20112;-84
2021/09/07 01:49:59;;;;;;;16.45;11.57;;;19.80;87.50;;;;;;5060843;28;20107;-84
2021/09/07 01:52:25;;;;;;;14.93;11.80;;;19.80;87.60;;;;;;5060804;28;20429;-84
2021/09/07 01:54:50;;;;;;;15.18;11.00;;;19.80;87.60;;;;;;5077083;28;20440;-85
2021/09/07 01:57:17;;;;;;;16.65;13.02;;;19.80;87.50;;;;;;5095640;28;20074;-84
2021/09/07 01:59:43;;;;;;;15.98;12.25;;;19.80;87.50;;;;;;5046905;28;20032;-84
2021/09/07 02:02:09;;;;;;;16.27;11.98;;;19.70;87.60;;;;;;5070277;28;20120;-84
2021/09/07 02:04:35;;;;;;;16.35;11.50;;;19.70;87.70;;;;;;5073013;28;20052;-84
2021/09/07 02:07:00;;;;;;;16.08;11.90;;;19.70;87.90;;;;;;5065957;28;20039;-84
2021/09/07 02:09:26;;;;;;;15.10;11.77;;;19.70;87.90;;;;;;5056235;28;20491;-86
2021/09/07 02:11:53;;;;;;;15.73;11.98;;;19.60;87.90;;;;;;5085355;28;20024;-86
2021/09/07 02:14:18;;;;;;;14.52;11.32;;;19.60;87.90;;;;;;5084236;28;20027;-85
2021/09/07 02:16:44;;;;;;;15.05;11.32;;;19.60;88.00;;;;;;5080165;28;20008;-84
2021/09/07 02:19:10;;;;;;;14.93;11.02;;;19.60;88.20;;;;;;5099506;28;20031;-89
2021/09/07 02:21:35;;;;;;;14.25;10.82;;;19.60;88.30;;;;;;5081840;28;20032;-85
2021/09/07 02:24:01;;;;;;;13.35;10.23;;;19.60;88.50;;;;;;5065413;28;20011;-91
2021/09/07 02:26:26;;;;;;;13.98;10.65;;;19.60;88.60;;;;;;5093958;28;20026;-91
2021/09/07 02:28:52;;;;;;;14.95;11.10;;;19.60;88.70;;;;;;5065049;28;20017;-86
2021/09/07 02:31:18;;;;;;;14.52;11.32;;;19.60;88.70;;;;;;5102303;28;20048;-86
2021/09/07 02:33:43;;;;;;;14.18;11.23;;;19.60;88.80;;;;;;5082631;28;20024;-84
2021/09/07 02:36:09;;;;;;;12.80;10.43;;;19.60;88.90;;;;;;5095459;28;20031;-84
2021/09/07 02:38:34;;;;;;;12.95;10.38;;;19.50;88.90;;;;;;5060070;28;20024;-84
2021/09/07 02:41:00;;;;;;;15.52;11.82;;;19.50;89.00;;;;;;5045207;28;20052;-84
2021/09/07 02:43:27;;;;;;;15.85;11.07;;;19.50;89.00;;;;;;5070268;28;20461;-84
2021/09/07 02:45:53;;;;;;;13.43;10.40;;;19.50;89.10;;;;;;5063949;28;20107;-86
2021/09/07 02:48:20;;;;;;;15.88;11.95;;;19.50;89.70;;;;;;5077851;28;20245;-84
2021/09/07 02:50:46;;;;;;;16.45;12.35;;;19.50;89.10;;;;;;5076857;28;20027;-84
2021/09/07 02:53:11;;;;;;;15.13;11.70;;;19.50;89.00;;;;;;5046491;28;20380;-84
2021/09/07 02:55:37;;;;;;;17.88;12.82;;;19.50;89.00;;;;;;5040776;28;20159;-84
2021/09/07 02:58:04;;;;;;;16.30;12.88;;;19.40;88.90;;;;;;5029446;28;20074;-84
2021/09/07 03:00:30;;;;;;;15.52;12.05;;;19.40;88.90;;;;;;5057079;28;20101;-84
2021/09/07 03:02:55;;;;;;;13.32;10.88;;;19.40;89.00;;;;;;5054651;28;20504;-84
2021/09/07 03:05:21;;;;;;;16.98;12.38;;;19.30;89.00;;;;;;5072210;28;20099;-84
2021/09/07 03:07:47;;;;;;;15.35;12.00;;;19.30;89.10;;;;;;5075635;28;20153;-84
2021/09/07 03:10:13;;;;;;;22.08;12.38;;;19.30;89.20;;;;;;5076100;28;20016;-86
2021/09/07 03:12:39;;;;;;;16.08;12.00;;;19.30;89.40;;;;;;5056953;28;20109;-84
2021/09/07 03:15:05;;;;;;;16.02;12.32;;;19.30;89.50;;;;;;5064019;28;20024;-84
2021/09/07 03:17:31;;;;;;;17.10;12.73;;;19.30;89.50;;;;;;5075828;28;20020;-84
2021/09/07 03:19:56;;;;;;;18.00;12.57;;;19.30;89.60;;;;;;5061841;28;20035;-84
2021/09/07 03:22:22;;;;;;;17.25;12.77;;;19.30;89.60;;;;;;5058541;28;20037;-84
2021/09/07 03:24:48;;;;;;;17.40;12.95;;;19.30;89.60;;;;;;5054480;28;20385;-84
2021/09/07 03:27:14;;;;;;;18.42;12.57;;;19.30;89.70;;;;;;5058913;28;20042;-84
2021/09/07 03:29:39;;;;;;;16.85;12.60;;;19.30;89.70;;;;;;5060829;28;20043;-84
2021/09/07 03:32:05;;;;;;;15.35;12.32;;;19.30;89.80;;;;;;5059821;28;20032;-84
2021/09/07 03:34:31;;;;;;;16.83;12.25;;;19.30;89.90;;;;;;5077960;28;20027;-88
2021/09/07 03:36:56;;;;;;;17.25;13.15;;;19.30;89.90;;;;;;5033688;28;20120;-84
2021/09/07 03:39:22;;;;;;;16.20;12.45;;;19.30;89.90;;;;;;5061377;28;20063;-84
2021/09/07 03:41:48;;;;;;;19.05;12.48;;;19.20;89.90;;;;;;5038050;28;20048;-85
2021/09/07 03:44:13;;;;;;;18.98;14.00;;;19.20;89.90;;;;;;5061319;28;20517;-84
2021/09/07 03:46:39;;;;;;;18.70;13.60;;;19.20;90.00;;;;;;5075531;28;20044;-87
2021/09/07 03:49:05;;;;;;;18.02;13.18;;;19.20;90.00;;;;;;5061329;28;20380;-84
2021/09/07 03:51:31;;;;;;;18.27;12.98;;;19.20;90.00;;;;;;5092911;28;20480;-84
2021/09/07 03:53:56;;;;;;;17.92;13.05;;;19.20;90.00;;;;;;5060677;28;20020;-84
2021/09/07 03:56:22;;;;;;;17.95;13.20;;;19.20;90.00;;;;;;5058647;28;20028;-84
2021/09/07 03:58:48;;;;;;;17.63;13.02;;;19.20;90.00;;;;;;5062965;28;20460;-86
2021/09/07 04:01:13;;;;;;;17.40;13.45;;;19.20;90.00;;;;;;5052213;28;20123;-84
2021/09/07 04:03:39;;;;;;;17.95;12.98;;;19.20;90.00;;;;;;5064986;28;20031;-84
2021/09/07 04:06:05;;;;;;;18.95;12.98;;;19.20;90.10;;;;;;5092548;28;20035;-84
2021/09/07 04:08:30;;;;;;;16.75;12.43;;;19.20;90.10;;;;;;5084916;28;20020;-83
2021/09/07 04:10:56;;;;;;;21.02;14.32;;;19.10;90.00;;;;;;5038409;28;20461;-83
2021/09/07 04:13:21;;;;;;;19.35;14.55;;;19.10;90.00;;;;;;5040336;28;20029;-85
2021/09/07 04:15:47;;;;;;;20.17;13.80;;;19.10;90.10;;;;;;5054593;28;20457;-84
2021/09/07 04:18:13;;;;;;;22.70;13.80;;;19.10;90.10;;;;;;5072505;28;20030;-84
2021/09/07 04:20:38;;;;;;;19.10;14.13;;;19.10;90.10;;;;;;5083862;28;20037;-84
2021/09/07 04:23:04;;;;;;;17.35;13.18;;;19.00;90.00;;;;;;5054603;28;20048;-84
2021/09/07 04:25:30;;;;;;;18.13;12.77;;;19.00;90.10;;;;;;5061450;28;20101;-84
2021/09/07 04:27:55;;;;;;;17.90;13.45;;;19.00;90.00;;;;;;5073306;28;20345;-84
2021/09/07 04:30:21;;;;;;;19.27;13.63;;;19.00;90.00;;;;;;5057704;28;20118;-84
2021/09/07 04:32:48;;;;;;;17.23;13.35;;;18.90;90.00;;;;;;5054665;28;20059;-85
2021/09/07 04:35:13;;;;;;;19.30;13.00;;;18.90;90.00;;;;;;5074227;28;20020;-82
2021/09/07 04:37:39;;;;;;;17.17;12.95;;;18.80;90.00;;;;;;5093161;28;20035;-84
2021/09/07 04:40:06;;;;;;;16.70;12.93;;;18.80;90.00;;;;;;5069883;28;20093;-83
2021/09/07 04:42:32;;;;;;;19.15;13.77;;;18.80;90.00;;;;;;5055235;28;20056;-84
2021/09/07 04:44:57;;;;;;;18.83;12.95;;;18.80;90.00;;;;;;5075060;28;20105;-84
2021/09/07 04:47:23;;;;;;;19.25;13.52;;;18.70;90.10;;;;;;5041618;28;20028;-84
2021/09/07 04:49:49;;;;;;;18.52;12.73;;;18.70;90.10;;;;;;5059389;28;20021;-84
2021/09/07 04:52:14;;;;;;;19.08;14.25;;;18.70;90.20;;;;;;5055717;28;20032;-84
2021/09/07 04:54:40;;;;;;;19.35;13.68;;;18.70;90.20;;;;;;5047666;28;20051;-84
2021/09/07 04:57:05;;;;;;;23.38;13.60;;;18.60;90.20;;;;;;5068910;28;20056;-86
2021/09/07 04:59:31;;;;;;;20.42;14.25;;;18.60;90.30;;;;;;5054960;28;20054;-85
2021/09/07 05:01:57;;;;;;;19.10;13.52;;;18.60;90.40;;;;;;5058945;28;20421;-84
2021/09/07 05:04:22;;;;;;;19.58;13.38;;;18.60;90.40;;;;;;5064100;28;20035;-84
2021/09/07 05:06:48;;;;;;;19.52;13.63;;;18.50;90.40;;;;;;5066207;28;20047;-87
2021/09/07 05:09:14;;;;;;;20.20;13.70;;;18.50;90.50;;;;;;5093254;28;20028;-85
2021/09/07 05:11:39;;;;;;;18.73;13.52;;;18.50;90.50;;;;;;5092969;28;20082;-84
2021/09/07 05:14:08;;;;;;;18.52;13.40;;;18.50;90.60;;;;;;5075085;28;20024;-84
2021/09/07 05:16:34;;;;;;;18.58;13.98;;;18.50;90.60;;;;;;5047873;28;20032;-83
2021/09/07 05:18:59;;;;;;;17.20;13.05;;;18.50;90.70;;;;;;5055779;28;20040;-85
2021/09/07 05:21:25;;;;;;;18.42;13.95;;;18.40;90.70;;;;;;5055426;28;20033;-84
2021/09/07 05:23:51;;;;;;;18.75;14.35;;;18.40;90.70;;;;;;5071437;28;20036;-93
2021/09/07 05:26:16;;;;;;;19.92;13.57;;;18.40;90.70;;;;;;5048429;28;20483;-85
2021/09/07 05:28:42;;;;;;;19.90;14.25;;;18.40;90.80;;;;;;5073703;28;20107;-85
2021/09/07 05:31:08;;;;;;;18.60;14.07;;;18.40;90.90;;;;;;5059068;28;20313;-85
2021/09/07 05:33:33;;;;;;;20.40;14.27;;;18.40;90.90;;;;;;5044041;28;20384;-85
2021/09/07 05:35:59;;;;;;;20.88;14.63;;;18.40;91.00;;;;;;5087621;28;20044;-86
2021/09/07 05:38:24;;;;;;;21.30;14.20;;;18.40;91.00;;;;;;5046441;28;20544;-85
2021/09/07 05:40:51;;;;;;;20.85;14.82;;;18.40;91.10;;;;;;5071114;28;20463;-91
2021/09/07 05:43:16;;;;;;;20.23;15.02;;;18.40;91.10;;;;;;5037335;28;20021;-87
2021/09/07 05:45:42;;;;;;;21.98;15.30;;;18.40;91.10;;;;;;5068640;28;20046;-87
2021/09/07 05:48:08;;;;;;;19.38;14.77;;;18.40;91.20;;;;;;5059213;28;20364;-85
2021/09/07 05:50:33;;;;;;;18.90;13.52;;;18.40;91.20;;;;;;5082306;28;20032;-85
2021/09/07 05:53:00;;;;;;;19.27;14.18;;;18.40;91.20;;;;;;5062051;28;20044;-85
2021/09/07 05:55:25;;;;;;;20.77;14.95;;;18.40;91.20;;;;;;5102378;28;20012;-87
2021/09/07 05:57:53;;;;;;;19.05;14.50;;;18.40;91.20;;;;;;5102324;28;20067;-90
2021/09/07 06:00:19;;;;;;;20.30;14.00;;;18.40;91.30;;;;;;5094034;28;20027;-89
2021/09/07 06:02:45;;;;;;;20.50;14.38;;;18.40;91.30;;;;;;5080776;28;20055;-86
2021/09/07 06:05:11;;;;;;;20.15;14.13;;;18.40;91.30;;;;;;5102440;28;20000;-90
2021/09/07 06:07:37;;;;;;;21.85;15.65;;;18.40;91.40;;;;;;5101396;28;20032;-89
2021/09/07 06:10:04;;;;;;;20.05;15.07;;;18.40;91.40;;;;;;5085504;28;20091;-86
2021/09/07 06:12:30;;;;;;;20.85;14.80;;;18.40;91.70;;;;;;5115597;28;20036;-85
2021/09/07 06:14:56;;;;;;;21.60;15.18;;;18.40;91.40;;;;;;5111021;28;20024;-85
2021/09/07 06:17:22;;;;;;;18.70;14.57;;;18.40;91.40;;;;;;5105788;28;20029;-85
2021/09/07 06:19:48;;;;;;;22.67;16.35;;;18.40;91.50;;;;;;5097326;28;20035;-85
2021/09/07 06:22:14;;;;;;;22.23;16.15;;;18.40;91.50;;;;;;5058006;28;20059;-86
2021/09/07 06:24:40;;;;;;;22.83;16.65;;;18.40;91.50;;;;;;5075504;28;20025;-85
2021/09/07 06:27:06;;;;;;;24.55;17.77;;;18.40;91.60;;;;;;5093628;28;20039;-84
2021/09/07 06:29:31;;;;;;;22.08;16.00;;;18.40;91.60;;;;;;5043845;28;20033;-84
2021/09/07 06:31:57;;;;;;;21.15;15.60;;;18.40;91.70;;;;;;5067505;28;20476;-84
2021/09/07 06:34:26;;;;;;;21.58;16.65;;;18.40;91.70;;;;;;5080111;28;20047;-84
2021/09/07 06:36:56;;;;;;;21.80;15.63;;;18.50;91.70;;;;;;5083552;28;20062;-85
2021/09/07 06:39:22;;;;;;;21.27;15.05;;;18.50;91.80;;;;;;5054333;28;20472;-84
2021/09/07 06:41:48;;;;;;;21.55;15.18;;;18.50;91.80;;;;;;5060024;28;20481;-85
2021/09/07 06:44:14;;;;;;;22.60;16.17;;;18.60;91.80;;;;;;5043550;28;20028;-84
2021/09/07 06:46:40;;;;;;;21.38;15.93;;;18.60;91.80;;;;;;5057162;28;20028;-84
2021/09/07 06:49:06;;;;;;;24.05;16.65;;;18.70;91.80;;;;;;5061246;28;20391;-85
2021/09/07 06:51:32;;;;;;;24.33;17.10;;;18.60;91.80;;;;;;5061700;28;20066;-85
2021/09/07 06:53:58;;;;;;;25.98;17.10;;;18.70;91.70;;;;;;5040828;28;20024;-86
2021/09/07 06:56:24;;;;;;;21.70;16.02;;;18.70;91.70;;;;;;5072109;28;20483;-85
2021/09/07 06:58:49;;;;;;;22.98;16.63;;;18.70;91.70;;;;;;5057393;28;20501;-85
2021/09/07 07:01:15;;;;;;;22.33;15.40;;;18.70;91.60;;;;;;5061209;28;20028;-85
2021/09/07 07:03:41;;;;;;;22.92;16.08;;;18.80;91.60;;;;;;5059505;28;20025;-85
2021/09/07 07:06:06;;;;;;;20.02;15.38;;;18.80;91.60;;;;;;5057091;28;20107;-84
2021/09/07 07:08:32;;;;;;;22.48;15.75;;;18.80;91.50;;;;;;5048935;28;20043;-85
2021/09/07 07:10:57;;;;;;;19.60;14.90;;;18.80;91.60;;;;;;5051060;28;20040;-85
2021/09/07 07:13:23;;;;;;;21.45;15.20;;;18.90;91.60;;;;;;5059317;28;20445;-84
2021/09/07 07:15:49;;;;;;;22.25;15.60;;;18.90;91.60;;;;;;5056910;28;20389;-82
2021/09/07 07:18:14;;;;;;;20.67;14.43;;;18.90;91.60;;;;;;5067747;28;20142;-84
2021/09/07 07:20:40;;;;;;;19.55;14.45;;;19.00;91.60;;;;;;5048286;28;20082;-84
2021/09/07 07:23:06;;;;;;;21.65;14.52;;;19.00;91.60;;;;;;5080989;28;20361;-83
2021/09/07 07:25:32;;;;;;;20.38;14.50;;;19.00;91.60;;;;;;5076729;28;20030;-83
2021/09/07 07:27:58;;;;;;;23.50;15.00;;;19.00;91.60;;;;;;5076488;28;20107;-83
2021/09/07 07:30:26;;;;;;;21.35;15.00;;;19.10;91.60;;;;;;5076517;28;20024;-83
2021/09/07 07:32:52;;;;;;;23.25;16.83;;;19.10;91.60;;;;;;5042693;28;20396;-84
2021/09/07 07:35:17;;;;;;;25.15;16.52;;;19.20;91.50;;;;;;5058473;28;20051;-83
2021/09/07 07:37:43;;;;;;;23.48;16.88;;;19.20;91.40;;;;;;5061286;28;20460;-83
2021/09/07 07:40:09;;;;;;;20.45;15.68;;;19.20;91.30;;;;;;5058065;28;20455;-83
2021/09/07 07:42:35;;;;;;;23.00;16.08;;;19.20;91.20;;;;;;5055929;28;20028;-85
2021/09/07 07:45:00;;;;;;;22.10;17.05;;;19.20;91.20;;;;;;5052562;28;20078;-84
2021/09/07 07:47:26;;;;;;;24.05;17.27;;;19.20;91.20;;;;;;5067309;28;20036;-83
2021/09/07 07:49:52;;;;;;;22.58;15.60;;;19.30;91.20;;;;;;5075004;28;20028;-84
2021/09/07 07:52:20;;;;;;;22.92;15.65;;;19.30;91.20;;;;;;5047590;28;20085;-83
2021/09/07 07:54:49;;;;;;;20.65;15.48;;;19.30;91.20;;;;;;5057829;28;20081;-82
2021/09/07 07:57:19;;;;;;;23.13;17.52;;;19.40;91.20;;;;;;5049705;28;20021;-83
2021/09/07 07:59:45;;;;;;;22.98;17.27;;;19.40;91.20;;;;;;5070798;28;20059;-82
2021/09/07 08:02:11;;;;;;;24.70;17.50;;;19.40;91.10;;;;;;5075300;28;20114;-81
2021/09/07 08:04:37;;;;;;;26.02;19.25;;;19.50;91.10;;;;;;5059025;28;20161;-82
2021/09/07 08:07:02;;;;;;;25.27;18.40;;;19.50;91.00;;;;;;5053878;28;20056;-81
2021/09/07 08:09:31;;;;;;;23.42;17.45;;;19.60;91.00;;;;;;5068399;28;20484;-82
2021/09/07 08:11:58;;;;;;;23.38;16.75;;;19.60;91.00;;;;;;5055792;28;20051;-81
2021/09/07 08:14:24;;;;;;;23.20;16.52;;;19.60;91.00;;;;;;5038706;28;20032;-81
2021/09/07 08:16:50;;;;;;;22.48;16.42;;;19.70;91.00;;;;;;5080042;28;20074;-82
2021/09/07 08:19:16;;;;;;;20.55;14.75;;;19.70;91.00;;;;;;5065511;28;20090;-82
2021/09/07 08:21:41;;;;;;;19.45;14.95;;;19.80;91.00;;;;;;5074224;28;20433;-84
2021/09/07 08:24:07;;;;;;;21.60;14.45;;;19.80;91.00;;;;;;5044306;28;20184;-84
2021/09/07 08:26:33;;;;;;;19.10;14.32;;;19.90;91.00;;;;;;5081781;28;20039;-82
2021/09/07 08:28:59;;;;;;;19.08;14.55;;;19.90;91.00;;;;;;5053662;28;20069;-82
2021/09/07 08:31:24;;;;;;;21.20;15.23;;;20.00;91.00;;;;;;5079499;28;20036;-82
2021/09/07 08:33:50;;;;;;;20.55;16.25;;;20.00;90.90;;;;;;5036008;28;20028;-82
2021/09/07 08:36:16;;;;;;;21.25;14.00;;;20.10;90.80;;;;;;5063251;28;20024;-82
2021/09/07 08:38:41;;;;;;;22.63;16.02;;;20.10;90.70;;;;;;5073907;28;20024;-82
2021/09/07 08:41:07;;;;;;;19.40;14.40;;;20.10;90.60;;;;;;5052899;28;20142;-83
2021/09/07 08:43:34;;;;;;;18.77;13.75;;;20.20;90.50;;;;;;5050892;28;20041;-82
2021/09/07 08:46:00;;;;;;;19.75;14.60;;;20.20;90.50;;;;;;5049764;28;20511;-83
2021/09/07 08:48:27;;;;;;;19.75;14.05;;;20.30;90.50;;;;;;5065973;28;20021;-82
2021/09/07 08:50:54;;;;;;;21.38;14.85;;;20.30;90.50;;;;;;5061425;28;20025;-82
2021/09/07 08:53:21;;;;;;;19.60;14.13;;;20.40;90.60;;;;;;5061993;28;20461;-82
2021/09/07 08:55:47;;;;;;;20.15;14.85;;;20.40;90.60;;;;;;5052226;28;20029;-83
2021/09/07 08:58:13;;;;;;;20.15;14.95;;;20.50;90.50;;;;;;5071107;28;20028;-83
2021/09/07 09:00:38;;;;;;;19.30;15.88;;;20.60;90.40;;;;;;5054399;28;20048;-82
2021/09/07 09:03:12;;;;;;;22.17;15.95;;;20.60;90.30;;;;;;5052105;28;20037;-81
2021/09/07 09:05:42;;;;;;;19.05;15.02;;;20.70;90.00;;;;;;5059202;28;20025;-82
2021/09/07 09:08:13;;;;;;;18.83;13.23;;;20.70;90.00;;;;;;5058292;28;20060;-82
2021/09/07 09:10:40;;;;;;;21.88;15.10;;;20.80;90.10;;;;;;5070670;28;20032;-83
2021/09/07 09:13:09;;;;;;;16.95;13.68;;;20.80;90.00;;;;;;5040185;28;20020;-82
2021/09/07 09:15:35;;;;;;;17.45;12.18;;;20.90;89.80;;;;;;5060861;28;20029;-81
2021/09/07 09:18:09;;;;;;;16.08;12.20;;;20.90;89.30;;;;;;5065327;28;20017;-81
2021/09/07 09:20:39;;;;;;;19.50;13.30;;;21.00;89.00;;;;;;5060178;28;20063;-83
2021/09/07 09:23:09;;;;;;;16.13;12.10;;;21.00;88.60;;;;;;5058587;28;20112;-85
2021/09/07 09:25:40;;;;;;;17.13;12.95;;;21.10;88.30;;;;;;5056888;28;20025;-82
2021/09/07 09:28:21;;;;;;;17.17;13.18;;;21.10;88.00;;;;;;5069624;28;20074;-82
2021/09/07 09:30:46;;;;;;;16.33;12.63;;;21.10;87.80;;;;;;5056114;28;20503;-82
2021/09/07 09:33:14;;;;;;;17.75;13.20;;;21.20;87.90;;;;;;5060992;28;20028;-82
2021/09/07 09:35:49;;;;;;;19.60;13.98;;;21.30;88.00;;;;;;5064701;28;20063;-82
2021/09/07 09:38:16;;;;;;;19.05;14.45;;;21.40;87.90;;;;;;5077460;28;20028;-83
2021/09/07 09:40:41;;;;;;;17.48;13.32;;;21.40;87.50;;;;;;5079979;28;20056;-90
2021/09/07 09:43:38;;;;;;;17.13;13.48;;;21.50;87.20;;;;;;5099627;28;20031;-86
2021/09/07 09:46:28;;;;;;;19.98;14.05;;;21.60;87.50;;;;;;5088761;28;20009;-85
2021/09/07 09:49:11;;;;;;;20.25;15.38;;;21.60;86.40;;;;;;5095698;28;20035;-86
2021/09/07 09:51:39;;;;;;;16.70;13.57;;;21.70;85.90;;;;;;5092745;28;20028;-86
2021/09/07 09:54:05;;;;;;;17.08;13.60;;;21.80;85.20;;;;;;5096663;28;20044;-86
2021/09/07 09:56:31;;;;;;;16.00;12.98;;;21.90;85.10;;;;;;5076060;28;20029;-86
2021/09/07 09:58:58;;;;;;;15.98;12.00;;;21.90;84.30;;;;;;5087481;28;20069;-82
2021/09/07 10:01:25;;;;;;;16.98;13.25;;;22.00;83.80;;;;;;5074492;28;20404;-86
2021/09/07 10:03:54;;;;;;;18.95;12.23;;;22.00;83.70;;;;;;5066384;28;20407;-86
2021/09/07 10:06:20;;;;;;;15.85;11.90;;;22.10;83.40;;;;;;5070592;28;20024;-88
2021/09/07 10:08:46;;;;;;;15.57;12.20;;;22.20;83.30;;;;;;5071395;28;20016;-92
2021/09/07 10:11:15;;;;;;;14.38;10.85;;;22.20;83.10;;;;;;5061022;28;20056;-87
2021/09/07 10:13:43;;;;;;;13.32;11.10;;;22.30;83.30;;;;;;5064247;28;20052;-87
2021/09/07 10:16:15;;;;;;;19.33;12.77;;;22.40;83.40;;;;;;5070527;28;20017;-87
2021/09/07 10:24:04;;;;;;;15.55;11.65;;;22.60;82.10;;;;;;5057281;28;20141;-87
2021/09/07 10:26:45;;;;;;;15.48;11.07;;;22.70;81.70;;;;;;5070230;28;20032;-86
2021/09/07 10:29:13;;;;;;;14.85;11.40;;;22.80;82.10;;;;;;5068538;28;20384;-87
2021/09/07 10:31:47;;;;;;;15.88;11.05;;;22.80;82.10;;;;;;5061988;28;20039;-86
2021/09/07 10:34:14;;;;;;;15.50;12.10;;;22.90;82.30;;;;;;5075122;28;20029;-86
2021/09/07 10:37:04;;;;;;;16.48;12.88;;;23.00;82.50;;;;;;5074865;28;20100;-88
2021/09/07 10:39:35;;;;;;;17.00;12.73;;;23.00;82.10;;;;;;5060088;28;20039;-88
2021/09/07 10:42:05;;;;;;;17.80;14.90;;;23.10;81.90;;;;;;5074541;28;20150;-87
2021/09/07 10:44:32;;;;;;;18.58;13.80;;;23.20;81.40;;;;;;5055767;28;20083;-86
2021/09/07 10:47:01;;;;;;;15.05;12.32;;;23.20;80.70;;;;;;5039037;28;20071;-86
2021/09/07 10:49:47;;;;;;;14.52;11.73;;;23.30;80.80;;;;;;5067199;28;20082;-88
2021/09/07 10:52:26;;;;;;;18.52;14.60;;;23.40;80.80;;;;;;5063458;28;20033;-88
2021/09/07 10:55:09;;;;;;;15.48;11.45;;;23.50;79.50;;;;;;5074014;28;20021;-86
2021/09/07 10:57:38;;;;;;;15.73;11.60;;;23.60;79.30;;;;;;5075136;28;20028;-86
2021/09/07 11:00:19;;;;;;;15.68;12.00;;;23.70;79.10;;;;;;5060192;28;20032;-86
2021/09/07 11:02:56;;;;;;;19.17;13.40;;;23.70;77.70;;;;;;5067270;28;20119;-90
2021/09/07 11:05:25;;;;;;;15.40;11.65;;;23.80;77.90;;;;;;5063405;28;20031;-82
2021/09/07 11:08:05;;;;;;;13.63;10.57;;;23.90;77.40;;;;;;5070221;28;20491;-83
2021/09/07 11:10:39;;;;;;;13.27;9.70;;;24.00;77.10;;;;;;5061697;28;20036;-84
2021/09/07 11:13:27;;;;;;;11.10;9.35;;;24.00;76.60;;;;;;5058408;28;20047;-84
2021/09/07 11:16:00;;;;;;;14.75;11.35;;;24.10;76.50;;;;;;5065640;28;20035;-82
2021/09/07 11:18:35;;;;;;;12.43;10.10;;;24.20;75.50;;;;;;5069845;28;20074;-80
2021/09/07 11:21:07;;;;;;;14.20;11.70;;;24.20;75.10;;;;;;5043068;28;20381;-82
2021/09/07 11:23:35;;;;;;;12.65;9.48;;;24.30;75.50;;;;;;5055981;28;20025;-83
2021/09/07 11:26:04;;;;;;;14.77;11.75;;;24.40;75.00;;;;;;5071448;28;20021;-83
2021/09/07 11:28:32;;;;;;;17.70;12.60;;;24.50;74.30;;;;;;5070062;28;20029;-84
2021/09/07 11:30:58;;;;;;;12.57;10.32;;;24.60;73.60;;;;;;5053349;28;20030;-81
2021/09/07 11:33:36;;;;;;;13.07;10.25;;;24.60;73.20;;;;;;5042716;28;20125;-82
2021/09/07 11:36:05;;;;;;;14.00;11.23;;;24.70;73.20;;;;;;5066596;28;20016;-81
2021/09/07 11:38:42;;;;;;;13.15;11.20;;;24.80;73.10;;;;;;5067309;28;20059;-81
2021/09/07 11:41:16;;;;;;;13.43;8.98;;;24.90;72.80;;;;;;5060884;28;20060;-80
2021/09/07 11:43:44;;;;;;;12.57;9.57;;;25.00;73.20;;;;;;5064647;28;20022;-80
2021/09/07 11:46:15;;;;;;;12.90;10.55;;;25.10;73.50;;;;;;5048452;28;20029;-81
2021/09/07 11:48:43;;;;;;;11.57;9.20;;;25.10;73.30;;;;;;5067193;28;20024;-81
2021/09/07 11:51:10;;;;;;;11.90;9.48;;;25.20;72.90;;;;;;5054857;28;20035;-84
2021/09/07 11:53:36;;;;;;;13.88;11.18;;;25.30;72.90;;;;;;5068277;28;20539;-82
2021/09/07 11:56:03;;;;;;;13.10;10.75;;;25.30;72.00;;;;;;5067199;28;20060;-81
2021/09/07 11:58:40;;;;;;;12.77;10.27;;;25.40;71.50;;;;;;5070898;28;20029;-83
2021/09/07 12:01:05;;;;;;;12.88;10.23;;;25.50;72.00;;;;;;5071075;28;20028;-84
2021/09/07 12:04:00;;;;;;;12.43;10.40;;;25.60;71.80;;;;;;5062794;28;20723;-81
2021/09/07 12:06:36;;;;;;;13.90;10.90;;;25.70;72.00;;;;;;5035793;28;20493;-83
2021/09/07 12:09:21;;;;;;;12.68;10.20;;;25.70;71.70;;;;;;5062101;28;20469;-81
2021/09/07 12:12:11;;;;;;;12.30;10.27;;;25.80;72.20;;;;;;5070619;28;20115;-85
2021/09/07 12:14:41;;;;;;;12.98;10.65;;;25.90;72.30;;;;;;5071004;28;20110;-84
2021/09/07 12:17:12;;;;;;;13.85;10.02;;;26.00;71.90;;;;;;5064901;28;20021;-82
2021/09/07 12:19:41;;;;;;;;;;;26.10;71.80;;;;;;5071195;28;20111;-84
2021/09/07 12:22:28;;;;;;;13.30;11.85;;;26.10;72.00;;;;;;5055270;28;19924;-81
2021/09/07 12:25:13;;;;;;;12.55;10.30;;;26.20;71.20;;;;;;5057236;28;20384;-82
2021/09/07 12:27:51;;;;;;;13.93;11.02;;;26.20;70.50;;;;;;5059823;28;20115;-82
2021/09/07 12:30:23;;;;;;;15.45;11.52;;;26.30;71.20;;;;;;5056559;28;20039;-82
2021/09/07 12:32:53;;;;;;;15.82;11.90;;;26.40;71.00;;;;;;5071636;28;20028;-81
2021/09/07 12:35:25;;;;;;;;;;;26.40;70.80;;;;;;5057955;28;20032;-82